sensor_id;sensor_type;location;lat;lon;timestamp;P1;durP1;ratioP1;P2;durP2;ratioP2
17993;SDS011;9122;48.406;9.984;2023-05-14T00:00:34;7.03;;;6.43;;
17993;SDS011;9122;48.406;9.984;2023-05-14T00:03:18;6.50;;;5.90;;
17993;SDS011;9122;48.406;9.984;2023-05-14T00:06:03;6.90;;;6.40;;
17993;SDS011;9122;48.406;9.984;2023-05-14T00:08:48;5.53;;;5.10;;
17993;SDS011;9122;48.406;9.984;2023-05-14T00:11:32;6.43;;;5.87;;
17993;SDS011;9122;48.406;9.984;2023-05-14T00:14:16;7.07;;;6.47;;
17993;SDS011;9122;48.406;9.984;2023-05-14T00:17:01;6.50;;;5.83;;
17993;SDS011;9122;48.406;9.984;2023-05-14T00:19:46;6.50;;;6.00;;
17993;SDS011;9122;48.406;9.984;2023-05-14T00:22:30;7.33;;;6.67;;
17993;SDS011;9122;48.406;9.984;2023-05-14T00:25:14;8.90;;;6.20;;
17993;SDS011;9122;48.406;9.984;2023-05-14T00:27:58;6.70;;;6.10;;
17993;SDS011;9122;48.406;9.984;2023-05-14T00:30:43;7.37;;;6.67;;
17993;SDS011;9122;48.406;9.984;2023-05-14T00:33:28;7.10;;;6.50;;
17993;SDS011;9122;48.406;9.984;2023-05-14T00:36:12;6.33;;;5.83;;
17993;SDS011;9122;48.406;9.984;2023-05-14T00:38:57;7.27;;;6.40;;
17993;SDS011;9122;48.406;9.984;2023-05-14T00:41:41;7.20;;;6.50;;
17993;SDS011;9122;48.406;9.984;2023-05-14T00:44:26;7.00;;;6.40;;
17993;SDS011;9122;48.406;9.984;2023-05-14T00:47:11;7.37;;;6.77;;
17993;SDS011;9122;48.406;9.984;2023-05-14T00:49:56;7.27;;;6.67;;
17993;SDS011;9122;48.406;9.984;2023-05-14T00:52:43;7.43;;;6.80;;
17993;SDS011;9122;48.406;9.984;2023-05-14T00:55:27;7.27;;;6.63;;
17993;SDS011;9122;48.406;9.984;2023-05-14T00:58:13;8.27;;;7.47;;
17993;SDS011;9122;48.406;9.984;2023-05-14T01:00:57;7.33;;;6.63;;
17993;SDS011;9122;48.406;9.984;2023-05-14T01:03:42;7.43;;;6.73;;
17993;SDS011;9122;48.406;9.984;2023-05-14T01:09:58;7.70;;;6.87;;
17993;SDS011;9122;48.406;9.984;2023-05-14T01:15:55;8.47;;;7.67;;
17993;SDS011;9122;48.406;9.984;2023-05-14T01:18:41;8.07;;;7.30;;
17993;SDS011;9122;48.406;9.984;2023-05-14T01:21:37;8.27;;;7.53;;
17993;SDS011;9122;48.406;9.984;2023-05-14T01:24:23;7.07;;;6.47;;
17993;SDS011;9122;48.406;9.984;2023-05-14T01:27:24;7.33;;;6.73;;
17993;SDS011;9122;48.406;9.984;2023-05-14T01:30:29;7.87;;;7.17;;
17993;SDS011;9122;48.406;9.984;2023-05-14T01:33:16;8.00;;;7.30;;
17993;SDS011;9122;48.406;9.984;2023-05-14T01:36:03;9.83;;;8.00;;
17993;SDS011;9122;48.406;9.984;2023-05-14T01:38:48;8.13;;;7.37;;
17993;SDS011;9122;48.406;9.984;2023-05-14T01:41:33;8.10;;;7.27;;
17993;SDS011;9122;48.406;9.984;2023-05-14T01:44:19;8.50;;;7.53;;
17993;SDS011;9122;48.406;9.984;2023-05-14T01:47:04;8.57;;;7.67;;
17993;SDS011;9122;48.406;9.984;2023-05-14T01:49:48;8.50;;;7.77;;
17993;SDS011;9122;48.406;9.984;2023-05-14T01:52:33;9.27;;;8.37;;
17993;SDS011;9122;48.406;9.984;2023-05-14T01:55:17;8.43;;;7.53;;
17993;SDS011;9122;48.406;9.984;2023-05-14T01:58:02;7.83;;;7.10;;
17993;SDS011;9122;48.406;9.984;2023-05-14T02:00:47;11.60;;;7.80;;
17993;SDS011;9122;48.406;9.984;2023-05-14T02:03:32;8.80;;;7.97;;
17993;SDS011;9122;48.406;9.984;2023-05-14T02:06:17;8.53;;;7.73;;
17993;SDS011;9122;48.406;9.984;2023-05-14T02:09:01;8.67;;;7.87;;
17993;SDS011;9122;48.406;9.984;2023-05-14T02:11:46;8.47;;;7.67;;
17993;SDS011;9122;48.406;9.984;2023-05-14T02:14:31;8.53;;;7.73;;
17993;SDS011;9122;48.406;9.984;2023-05-14T02:17:15;7.77;;;7.07;;
17993;SDS011;9122;48.406;9.984;2023-05-14T02:20:00;10.07;;;8.50;;
17993;SDS011;9122;48.406;9.984;2023-05-14T02:22:44;9.47;;;8.47;;
17993;SDS011;9122;48.406;9.984;2023-05-14T02:25:29;9.57;;;8.73;;
17993;SDS011;9122;48.406;9.984;2023-05-14T02:28:13;8.90;;;8.00;;
17993;SDS011;9122;48.406;9.984;2023-05-14T02:30:58;10.03;;;9.07;;
17993;SDS011;9122;48.406;9.984;2023-05-14T02:33:44;9.40;;;8.50;;
17993;SDS011;9122;48.406;9.984;2023-05-14T02:36:29;10.57;;;9.03;;
17993;SDS011;9122;48.406;9.984;2023-05-14T02:39:16;9.57;;;8.67;;
17993;SDS011;9122;48.406;9.984;2023-05-14T02:42:02;9.73;;;8.60;;
17993;SDS011;9122;48.406;9.984;2023-05-14T02:44:46;8.97;;;8.13;;
17993;SDS011;9122;48.406;9.984;2023-05-14T02:47:31;9.13;;;8.33;;
17993;SDS011;9122;48.406;9.984;2023-05-14T02:50:15;10.23;;;7.93;;
17993;SDS011;9122;48.406;9.984;2023-05-14T02:53:00;9.80;;;8.90;;
17993;SDS011;9122;48.406;9.984;2023-05-14T02:55:45;13.93;;;8.83;;
17993;SDS011;9122;48.406;9.984;2023-05-14T02:58:29;11.20;;;9.37;;
17993;SDS011;9122;48.406;9.984;2023-05-14T03:01:13;10.53;;;9.53;;
17993;SDS011;9122;48.406;9.984;2023-05-14T03:03:57;10.20;;;9.20;;
17993;SDS011;9122;48.406;9.984;2023-05-14T03:06:44;12.83;;;10.53;;
17993;SDS011;9122;48.406;9.984;2023-05-14T03:09:28;10.60;;;9.57;;
17993;SDS011;9122;48.406;9.984;2023-05-14T03:12:13;10.60;;;9.50;;
17993;SDS011;9122;48.406;9.984;2023-05-14T03:14:57;10.53;;;9.53;;
17993;SDS011;9122;48.406;9.984;2023-05-14T03:17:42;12.17;;;10.13;;
17993;SDS011;9122;48.406;9.984;2023-05-14T03:20:26;10.63;;;9.67;;
17993;SDS011;9122;48.406;9.984;2023-05-14T03:23:11;12.43;;;10.33;;
17993;SDS011;9122;48.406;9.984;2023-05-14T03:25:56;10.50;;;9.40;;
17993;SDS011;9122;48.406;9.984;2023-05-14T03:28:40;10.57;;;9.57;;
17993;SDS011;9122;48.406;9.984;2023-05-14T03:31:25;13.47;;;10.27;;
17993;SDS011;9122;48.406;9.984;2023-05-14T03:34:09;10.63;;;9.63;;
17993;SDS011;9122;48.406;9.984;2023-05-14T03:36:54;11.63;;;10.53;;
17993;SDS011;9122;48.406;9.984;2023-05-14T03:39:38;10.53;;;9.33;;
17993;SDS011;9122;48.406;9.984;2023-05-14T03:42:23;10.43;;;9.23;;
17993;SDS011;9122;48.406;9.984;2023-05-14T03:45:08;10.70;;;9.67;;
17993;SDS011;9122;48.406;9.984;2023-05-14T03:47:52;13.33;;;11.20;;
17993;SDS011;9122;48.406;9.984;2023-05-14T03:50:39;11.97;;;10.70;;
17993;SDS011;9122;48.406;9.984;2023-05-14T03:53:24;13.13;;;10.70;;
17993;SDS011;9122;48.406;9.984;2023-05-14T03:56:08;11.83;;;10.63;;
17993;SDS011;9122;48.406;9.984;2023-05-14T03:58:52;12.10;;;10.73;;
17993;SDS011;9122;48.406;9.984;2023-05-14T04:01:37;11.20;;;10.07;;
17993;SDS011;9122;48.406;9.984;2023-05-14T04:04:21;11.60;;;10.50;;
17993;SDS011;9122;48.406;9.984;2023-05-14T04:07:06;12.13;;;10.03;;
17993;SDS011;9122;48.406;9.984;2023-05-14T04:09:51;12.57;;;10.47;;
17993;SDS011;9122;48.406;9.984;2023-05-14T04:12:35;13.40;;;11.10;;
17993;SDS011;9122;48.406;9.984;2023-05-14T04:15:19;11.57;;;10.37;;
17993;SDS011;9122;48.406;9.984;2023-05-14T04:18:05;11.47;;;10.33;;
17993;SDS011;9122;48.406;9.984;2023-05-14T04:20:49;11.77;;;10.63;;
17993;SDS011;9122;48.406;9.984;2023-05-14T04:23:33;13.10;;;11.10;;
17993;SDS011;9122;48.406;9.984;2023-05-14T04:26:18;11.60;;;10.50;;
17993;SDS011;9122;48.406;9.984;2023-05-14T04:29:02;11.50;;;10.40;;
17993;SDS011;9122;48.406;9.984;2023-05-14T04:31:47;15.23;;;10.13;;
17993;SDS011;9122;48.406;9.984;2023-05-14T04:34:32;11.70;;;10.37;;
17993;SDS011;9122;48.406;9.984;2023-05-14T04:37:16;10.67;;;9.57;;
17993;SDS011;9122;48.406;9.984;2023-05-14T04:40:01;10.73;;;9.33;;
17993;SDS011;9122;48.406;9.984;2023-05-14T04:42:46;12.60;;;9.93;;
17993;SDS011;9122;48.406;9.984;2023-05-14T04:45:30;10.47;;;9.47;;
17993;SDS011;9122;48.406;9.984;2023-05-14T04:48:15;10.83;;;9.67;;
17993;SDS011;9122;48.406;9.984;2023-05-14T04:51:00;11.63;;;10.47;;
17993;SDS011;9122;48.406;9.984;2023-05-14T04:53:44;12.17;;;10.90;;
17993;SDS011;9122;48.406;9.984;2023-05-14T04:56:29;11.73;;;10.50;;
17993;SDS011;9122;48.406;9.984;2023-05-14T04:59:13;13.10;;;10.20;;
17993;SDS011;9122;48.406;9.984;2023-05-14T05:01:58;11.20;;;10.00;;
17993;SDS011;9122;48.406;9.984;2023-05-14T05:04:44;11.53;;;10.43;;
17993;SDS011;9122;48.406;9.984;2023-05-14T05:07:29;11.23;;;10.17;;
17993;SDS011;9122;48.406;9.984;2023-05-14T05:10:14;11.60;;;10.50;;
17993;SDS011;9122;48.406;9.984;2023-05-14T05:12:59;11.53;;;10.27;;
17993;SDS011;9122;48.406;9.984;2023-05-14T05:15:43;11.63;;;9.93;;
17993;SDS011;9122;48.406;9.984;2023-05-14T05:18:28;12.93;;;10.50;;
17993;SDS011;9122;48.406;9.984;2023-05-14T05:21:13;11.57;;;9.93;;
17993;SDS011;9122;48.406;9.984;2023-05-14T05:23:57;11.23;;;10.03;;
17993;SDS011;9122;48.406;9.984;2023-05-14T05:26:41;11.83;;;10.47;;
17993;SDS011;9122;48.406;9.984;2023-05-14T05:29:26;11.60;;;10.40;;
17993;SDS011;9122;48.406;9.984;2023-05-14T05:32:11;11.13;;;10.07;;
17993;SDS011;9122;48.406;9.984;2023-05-14T05:34:55;10.80;;;9.67;;
17993;SDS011;9122;48.406;9.984;2023-05-14T05:37:40;12.00;;;9.63;;
17993;SDS011;9122;48.406;9.984;2023-05-14T05:40:25;10.57;;;9.67;;
17993;SDS011;9122;48.406;9.984;2023-05-14T05:43:10;10.97;;;8.93;;
17993;SDS011;9122;48.406;9.984;2023-05-14T05:45:56;11.90;;;10.33;;
17993;SDS011;9122;48.406;9.984;2023-05-14T05:48:41;11.33;;;10.27;;
17993;SDS011;9122;48.406;9.984;2023-05-14T05:51:25;10.63;;;9.53;;
17993;SDS011;9122;48.406;9.984;2023-05-14T05:54:09;11.47;;;9.97;;
17993;SDS011;9122;48.406;9.984;2023-05-14T05:56:53;11.27;;;10.17;;
17993;SDS011;9122;48.406;9.984;2023-05-14T05:59:38;12.47;;;11.17;;
17993;SDS011;9122;48.406;9.984;2023-05-14T06:02:22;10.17;;;9.13;;
17993;SDS011;9122;48.406;9.984;2023-05-14T06:05:08;11.47;;;10.27;;
17993;SDS011;9122;48.406;9.984;2023-05-14T06:07:53;10.33;;;9.33;;
17993;SDS011;9122;48.406;9.984;2023-05-14T06:10:37;10.73;;;9.13;;
17993;SDS011;9122;48.406;9.984;2023-05-14T06:13:22;10.83;;;9.83;;
17993;SDS011;9122;48.406;9.984;2023-05-14T06:16:06;10.90;;;9.87;;
17993;SDS011;9122;48.406;9.984;2023-05-14T06:18:55;11.03;;;9.93;;
17993;SDS011;9122;48.406;9.984;2023-05-14T06:21:39;12.40;;;10.73;;
17993;SDS011;9122;48.406;9.984;2023-05-14T06:24:23;11.00;;;9.90;;
17993;SDS011;9122;48.406;9.984;2023-05-14T06:27:08;11.97;;;10.30;;
17993;SDS011;9122;48.406;9.984;2023-05-14T06:29:54;12.10;;;10.87;;
17993;SDS011;9122;48.406;9.984;2023-05-14T06:32:39;12.17;;;10.83;;
17993;SDS011;9122;48.406;9.984;2023-05-14T06:35:23;13.50;;;10.43;;
17993;SDS011;9122;48.406;9.984;2023-05-14T06:38:08;14.20;;;11.73;;
17993;SDS011;9122;48.406;9.984;2023-05-14T06:40:52;11.77;;;10.60;;
17993;SDS011;9122;48.406;9.984;2023-05-14T06:43:46;10.90;;;9.77;;
17993;SDS011;9122;48.406;9.984;2023-05-14T06:46:31;11.47;;;10.37;;
17993;SDS011;9122;48.406;9.984;2023-05-14T06:49:15;11.53;;;9.57;;
17993;SDS011;9122;48.406;9.984;2023-05-14T06:52:00;10.73;;;9.70;;
17993;SDS011;9122;48.406;9.984;2023-05-14T06:54:45;10.83;;;9.80;;
17993;SDS011;9122;48.406;9.984;2023-05-14T06:57:29;11.27;;;10.07;;
17993;SDS011;9122;48.406;9.984;2023-05-14T07:00:14;11.20;;;10.10;;
17993;SDS011;9122;48.406;9.984;2023-05-14T07:02:59;10.40;;;9.40;;
17993;SDS011;9122;48.406;9.984;2023-05-14T07:05:43;10.23;;;9.30;;
17993;SDS011;9122;48.406;9.984;2023-05-14T07:08:29;9.50;;;8.60;;
17993;SDS011;9122;48.406;9.984;2023-05-14T07:11:13;10.33;;;9.43;;
17993;SDS011;9122;48.406;9.984;2023-05-14T07:13:58;8.53;;;7.73;;
17993;SDS011;9122;48.406;9.984;2023-05-14T07:16:43;9.07;;;8.17;;
17993;SDS011;9122;48.406;9.984;2023-05-14T07:19:29;9.90;;;8.93;;
17993;SDS011;9122;48.406;9.984;2023-05-14T07:22:14;8.77;;;7.83;;
17993;SDS011;9122;48.406;9.984;2023-05-14T07:24:59;9.80;;;8.80;;
17993;SDS011;9122;48.406;9.984;2023-05-14T07:27:44;9.80;;;8.40;;
17993;SDS011;9122;48.406;9.984;2023-05-14T07:30:28;9.27;;;8.37;;
17993;SDS011;9122;48.406;9.984;2023-05-14T07:33:12;8.83;;;8.03;;
17993;SDS011;9122;48.406;9.984;2023-05-14T07:35:56;8.63;;;7.87;;
17993;SDS011;9122;48.406;9.984;2023-05-14T07:38:41;9.07;;;8.27;;
17993;SDS011;9122;48.406;9.984;2023-05-14T07:41:25;8.00;;;7.40;;
17993;SDS011;9122;48.406;9.984;2023-05-14T07:44:10;9.60;;;8.60;;
17993;SDS011;9122;48.406;9.984;2023-05-14T07:46:54;8.80;;;8.03;;
17993;SDS011;9122;48.406;9.984;2023-05-14T07:49:39;8.80;;;8.00;;
17993;SDS011;9122;48.406;9.984;2023-05-14T07:52:24;9.00;;;8.10;;
17993;SDS011;9122;48.406;9.984;2023-05-14T07:55:09;8.20;;;7.50;;
17993;SDS011;9122;48.406;9.984;2023-05-14T07:57:55;8.10;;;7.40;;
17993;SDS011;9122;48.406;9.984;2023-05-14T08:00:39;7.73;;;7.03;;
17993;SDS011;9122;48.406;9.984;2023-05-14T08:03:24;8.33;;;7.43;;
17993;SDS011;9122;48.406;9.984;2023-05-14T08:06:08;8.23;;;7.13;;
17993;SDS011;9122;48.406;9.984;2023-05-14T08:08:53;7.17;;;6.50;;
17993;SDS011;9122;48.406;9.984;2023-05-14T08:11:38;6.80;;;6.20;;
17993;SDS011;9122;48.406;9.984;2023-05-14T08:14:23;7.17;;;6.37;;
17993;SDS011;9122;48.406;9.984;2023-05-14T08:17:07;7.43;;;6.70;;
17993;SDS011;9122;48.406;9.984;2023-05-14T08:19:52;6.77;;;6.07;;
17993;SDS011;9122;48.406;9.984;2023-05-14T08:22:37;6.77;;;6.27;;
17993;SDS011;9122;48.406;9.984;2023-05-14T08:25:21;7.47;;;6.83;;
17993;SDS011;9122;48.406;9.984;2023-05-14T08:28:06;8.07;;;7.27;;
17993;SDS011;9122;48.406;9.984;2023-05-14T08:30:51;7.63;;;7.03;;
17993;SDS011;9122;48.406;9.984;2023-05-14T08:33:35;7.97;;;7.27;;
17993;SDS011;9122;48.406;9.984;2023-05-14T08:36:20;8.43;;;7.23;;
17993;SDS011;9122;48.406;9.984;2023-05-14T08:39:05;8.00;;;7.30;;
17993;SDS011;9122;48.406;9.984;2023-05-14T08:41:52;8.07;;;7.27;;
17993;SDS011;9122;48.406;9.984;2023-05-14T08:44:38;8.00;;;7.23;;
17993;SDS011;9122;48.406;9.984;2023-05-14T08:47:29;7.97;;;7.20;;
17993;SDS011;9122;48.406;9.984;2023-05-14T08:50:14;8.53;;;7.60;;
17993;SDS011;9122;48.406;9.984;2023-05-14T08:52:59;8.43;;;7.53;;
17993;SDS011;9122;48.406;9.984;2023-05-14T08:55:43;7.70;;;7.10;;
17993;SDS011;9122;48.406;9.984;2023-05-14T08:58:31;7.30;;;6.70;;
17993;SDS011;9122;48.406;9.984;2023-05-14T09:01:15;8.43;;;7.63;;
17993;SDS011;9122;48.406;9.984;2023-05-14T09:04:01;7.97;;;7.27;;
17993;SDS011;9122;48.406;9.984;2023-05-14T09:06:51;8.20;;;7.40;;
17993;SDS011;9122;48.406;9.984;2023-05-14T09:09:36;8.80;;;8.03;;
17993;SDS011;9122;48.406;9.984;2023-05-14T09:12:21;8.47;;;7.57;;
17993;SDS011;9122;48.406;9.984;2023-05-14T09:15:06;8.73;;;7.93;;
17993;SDS011;9122;48.406;9.984;2023-05-14T09:17:51;9.30;;;8.50;;
17993;SDS011;9122;48.406;9.984;2023-05-14T09:20:36;8.67;;;7.97;;
17993;SDS011;9122;48.406;9.984;2023-05-14T09:23:21;8.43;;;7.73;;
17993;SDS011;9122;48.406;9.984;2023-05-14T09:26:09;8.77;;;7.90;;
17993;SDS011;9122;48.406;9.984;2023-05-14T09:28:55;7.77;;;7.17;;
17993;SDS011;9122;48.406;9.984;2023-05-14T09:31:44;8.23;;;7.53;;
17993;SDS011;9122;48.406;9.984;2023-05-14T09:34:29;8.40;;;7.60;;
17993;SDS011;9122;48.406;9.984;2023-05-14T09:37:15;8.03;;;7.27;;
17993;SDS011;9122;48.406;9.984;2023-05-14T09:40:04;8.73;;;7.90;;
17993;SDS011;9122;48.406;9.984;2023-05-14T09:42:50;7.97;;;7.37;;
17993;SDS011;9122;48.406;9.984;2023-05-14T09:45:34;7.70;;;7.07;;
17993;SDS011;9122;48.406;9.984;2023-05-14T09:48:20;7.97;;;7.27;;
17993;SDS011;9122;48.406;9.984;2023-05-14T09:51:05;9.23;;;7.73;;
17993;SDS011;9122;48.406;9.984;2023-05-14T09:53:50;7.00;;;6.50;;
17993;SDS011;9122;48.406;9.984;2023-05-14T09:56:36;8.50;;;7.80;;
17993;SDS011;9122;48.406;9.984;2023-05-14T09:59:22;7.47;;;6.80;;
17993;SDS011;9122;48.406;9.984;2023-05-14T10:02:06;7.27;;;6.77;;
17993;SDS011;9122;48.406;9.984;2023-05-14T10:05:07;7.20;;;6.63;;
17993;SDS011;9122;48.406;9.984;2023-05-14T10:07:53;8.40;;;7.60;;
17993;SDS011;9122;48.406;9.984;2023-05-14T10:10:41;7.70;;;7.10;;
17993;SDS011;9122;48.406;9.984;2023-05-14T10:13:28;7.60;;;7.00;;
17993;SDS011;9122;48.406;9.984;2023-05-14T10:16:18;7.07;;;6.57;;
17993;SDS011;9122;48.406;9.984;2023-05-14T10:19:11;6.93;;;6.43;;
17993;SDS011;9122;48.406;9.984;2023-05-14T10:22:05;6.90;;;6.30;;
17993;SDS011;9122;48.406;9.984;2023-05-14T10:24:53;6.63;;;6.03;;
17993;SDS011;9122;48.406;9.984;2023-05-14T10:27:39;6.77;;;6.23;;
17993;SDS011;9122;48.406;9.984;2023-05-14T10:30:25;7.20;;;6.57;;
17993;SDS011;9122;48.406;9.984;2023-05-14T10:33:13;7.03;;;6.40;;
17993;SDS011;9122;48.406;9.984;2023-05-14T10:36:01;7.20;;;6.50;;
17993;SDS011;9122;48.406;9.984;2023-05-14T10:38:48;6.23;;;5.50;;
17993;SDS011;9122;48.406;9.984;2023-05-14T10:41:41;6.27;;;5.70;;
17993;SDS011;9122;48.406;9.984;2023-05-14T10:44:26;6.53;;;6.03;;
17993;SDS011;9122;48.406;9.984;2023-05-14T10:47:12;6.03;;;5.53;;
17993;SDS011;9122;48.406;9.984;2023-05-14T10:49:58;6.37;;;5.87;;
17993;SDS011;9122;48.406;9.984;2023-05-14T10:52:48;5.93;;;5.47;;
17993;SDS011;9122;48.406;9.984;2023-05-14T10:55:34;5.47;;;5.07;;
17993;SDS011;9122;48.406;9.984;2023-05-14T10:58:19;5.77;;;5.20;;
17993;SDS011;9122;48.406;9.984;2023-05-14T11:01:05;6.00;;;5.60;;
17993;SDS011;9122;48.406;9.984;2023-05-14T11:03:50;5.83;;;5.37;;
17993;SDS011;9122;48.406;9.984;2023-05-14T11:06:36;4.73;;;4.33;;
17993;SDS011;9122;48.406;9.984;2023-05-14T11:09:22;5.67;;;5.20;;
17993;SDS011;9122;48.406;9.984;2023-05-14T11:12:08;4.90;;;4.50;;
17993;SDS011;9122;48.406;9.984;2023-05-14T11:14:53;4.20;;;3.90;;
17993;SDS011;9122;48.406;9.984;2023-05-14T11:17:40;5.00;;;4.70;;
17993;SDS011;9122;48.406;9.984;2023-05-14T11:20:26;5.13;;;4.73;;
17993;SDS011;9122;48.406;9.984;2023-05-14T11:23:10;5.10;;;4.70;;
17993;SDS011;9122;48.406;9.984;2023-05-14T11:25:55;7.97;;;4.90;;
17993;SDS011;9122;48.406;9.984;2023-05-14T11:28:39;4.63;;;4.23;;
17993;SDS011;9122;48.406;9.984;2023-05-14T11:31:24;4.90;;;4.50;;
17993;SDS011;9122;48.406;9.984;2023-05-14T11:34:08;4.97;;;4.57;;
17993;SDS011;9122;48.406;9.984;2023-05-14T11:36:53;5.00;;;4.60;;
17993;SDS011;9122;48.406;9.984;2023-05-14T11:39:38;4.43;;;4.13;;
17993;SDS011;9122;48.406;9.984;2023-05-14T11:42:22;4.70;;;4.30;;
17993;SDS011;9122;48.406;9.984;2023-05-14T11:45:11;4.03;;;3.73;;
17993;SDS011;9122;48.406;9.984;2023-05-14T11:47:57;5.03;;;4.63;;
17993;SDS011;9122;48.406;9.984;2023-05-14T11:50:43;5.03;;;4.73;;
17993;SDS011;9122;48.406;9.984;2023-05-14T11:53:29;4.40;;;4.10;;
17993;SDS011;9122;48.406;9.984;2023-05-14T11:56:14;4.60;;;4.23;;
17993;SDS011;9122;48.406;9.984;2023-05-14T11:58:59;4.57;;;4.13;;
17993;SDS011;9122;48.406;9.984;2023-05-14T12:01:44;4.27;;;3.93;;
17993;SDS011;9122;48.406;9.984;2023-05-14T12:04:29;4.37;;;4.07;;
17993;SDS011;9122;48.406;9.984;2023-05-14T12:07:14;4.47;;;4.17;;
17993;SDS011;9122;48.406;9.984;2023-05-14T12:10:00;4.50;;;4.20;;
17993;SDS011;9122;48.406;9.984;2023-05-14T12:12:46;4.10;;;3.80;;
17993;SDS011;9122;48.406;9.984;2023-05-14T12:15:31;6.63;;;4.30;;
17993;SDS011;9122;48.406;9.984;2023-05-14T12:18:16;4.20;;;3.90;;
17993;SDS011;9122;48.406;9.984;2023-05-14T12:21:01;3.60;;;3.37;;
17993;SDS011;9122;48.406;9.984;2023-05-14T12:23:46;4.03;;;3.73;;
17993;SDS011;9122;48.406;9.984;2023-05-14T12:26:39;3.40;;;3.20;;
17993;SDS011;9122;48.406;9.984;2023-05-14T12:29:27;5.50;;;3.40;;
17993;SDS011;9122;48.406;9.984;2023-05-14T12:32:13;3.80;;;3.50;;
17993;SDS011;9122;48.406;9.984;2023-05-14T12:34:58;3.70;;;3.50;;
17993;SDS011;9122;48.406;9.984;2023-05-14T12:37:43;5.50;;;5.10;;
17993;SDS011;9122;48.406;9.984;2023-05-14T12:40:28;5.10;;;4.73;;
17993;SDS011;9122;48.406;9.984;2023-05-14T12:43:15;4.20;;;3.90;;
17993;SDS011;9122;48.406;9.984;2023-05-14T12:45:59;4.43;;;4.13;;
17993;SDS011;9122;48.406;9.984;2023-05-14T12:48:44;4.10;;;3.80;;
17993;SDS011;9122;48.406;9.984;2023-05-14T12:51:28;3.60;;;3.40;;
17993;SDS011;9122;48.406;9.984;2023-05-14T12:54:13;3.70;;;3.40;;
17993;SDS011;9122;48.406;9.984;2023-05-14T12:56:58;5.67;;;4.17;;
17993;SDS011;9122;48.406;9.984;2023-05-14T12:59:43;3.37;;;3.17;;
17993;SDS011;9122;48.406;9.984;2023-05-14T13:02:27;3.80;;;3.50;;
17993;SDS011;9122;48.406;9.984;2023-05-14T13:05:11;3.93;;;3.63;;
17993;SDS011;9122;48.406;9.984;2023-05-14T13:07:57;4.70;;;4.40;;
17993;SDS011;9122;48.406;9.984;2023-05-14T13:10:43;5.03;;;4.60;;
17993;SDS011;9122;48.406;9.984;2023-05-14T13:13:28;5.07;;;4.60;;
17993;SDS011;9122;48.406;9.984;2023-05-14T13:16:12;5.23;;;4.67;;
17993;SDS011;9122;48.406;9.984;2023-05-14T13:19:01;4.10;;;3.80;;
17993;SDS011;9122;48.406;9.984;2023-05-14T13:21:45;4.27;;;3.87;;
17993;SDS011;9122;48.406;9.984;2023-05-14T13:24:29;4.00;;;3.70;;
17993;SDS011;9122;48.406;9.984;2023-05-14T13:27:14;3.40;;;3.20;;
17993;SDS011;9122;48.406;9.984;2023-05-14T13:29:58;3.17;;;2.80;;
17993;SDS011;9122;48.406;9.984;2023-05-14T13:32:42;3.20;;;2.90;;
17993;SDS011;9122;48.406;9.984;2023-05-14T13:35:27;3.47;;;3.20;;
17993;SDS011;9122;48.406;9.984;2023-05-14T13:38:11;4.10;;;3.80;;
17993;SDS011;9122;48.406;9.984;2023-05-14T13:40:56;3.33;;;3.13;;
17993;SDS011;9122;48.406;9.984;2023-05-14T13:43:44;2.63;;;2.43;;
17993;SDS011;9122;48.406;9.984;2023-05-14T13:46:29;4.17;;;3.00;;
17993;SDS011;9122;48.406;9.984;2023-05-14T13:49:13;2.60;;;2.50;;
17993;SDS011;9122;48.406;9.984;2023-05-14T13:51:58;3.40;;;2.10;;
17993;SDS011;9122;48.406;9.984;2023-05-14T13:54:42;3.17;;;2.97;;
17993;SDS011;9122;48.406;9.984;2023-05-14T13:57:27;3.53;;;3.23;;
17993;SDS011;9122;48.406;9.984;2023-05-14T14:00:11;3.07;;;2.87;;
17993;SDS011;9122;48.406;9.984;2023-05-14T14:02:57;4.40;;;4.10;;
17993;SDS011;9122;48.406;9.984;2023-05-14T14:05:41;3.57;;;3.37;;
17993;SDS011;9122;48.406;9.984;2023-05-14T14:08:25;3.20;;;2.90;;
17993;SDS011;9122;48.406;9.984;2023-05-14T14:11:10;2.97;;;2.70;;
17993;SDS011;9122;48.406;9.984;2023-05-14T14:13:56;2.80;;;2.60;;
17993;SDS011;9122;48.406;9.984;2023-05-14T14:16:40;2.43;;;2.30;;
17993;SDS011;9122;48.406;9.984;2023-05-14T14:19:24;3.00;;;2.20;;
17993;SDS011;9122;48.406;9.984;2023-05-14T14:22:09;4.13;;;2.80;;
17993;SDS011;9122;48.406;9.984;2023-05-14T14:24:55;2.90;;;2.70;;
17993;SDS011;9122;48.406;9.984;2023-05-14T14:27:39;3.30;;;3.10;;
17993;SDS011;9122;48.406;9.984;2023-05-14T14:30:23;3.47;;;3.17;;
17993;SDS011;9122;48.406;9.984;2023-05-14T14:33:08;4.73;;;3.73;;
17993;SDS011;9122;48.406;9.984;2023-05-14T14:35:53;4.27;;;3.80;;
17993;SDS011;9122;48.406;9.984;2023-05-14T14:38:37;4.57;;;4.27;;
17993;SDS011;9122;48.406;9.984;2023-05-14T14:41:22;5.17;;;4.37;;
17993;SDS011;9122;48.406;9.984;2023-05-14T14:44:06;4.93;;;4.37;;
17993;SDS011;9122;48.406;9.984;2023-05-14T14:46:51;4.40;;;3.47;;
17993;SDS011;9122;48.406;9.984;2023-05-14T14:49:35;4.70;;;4.30;;
17993;SDS011;9122;48.406;9.984;2023-05-14T14:52:20;4.13;;;3.73;;
17993;SDS011;9122;48.406;9.984;2023-05-14T14:55:05;4.07;;;3.77;;
17993;SDS011;9122;48.406;9.984;2023-05-14T14:57:49;3.40;;;3.10;;
17993;SDS011;9122;48.406;9.984;2023-05-14T15:00:33;5.37;;;3.43;;
17993;SDS011;9122;48.406;9.984;2023-05-14T15:03:18;4.07;;;3.77;;
17993;SDS011;9122;48.406;9.984;2023-05-14T15:06:03;3.57;;;3.27;;
17993;SDS011;9122;48.406;9.984;2023-05-14T15:08:48;3.30;;;3.07;;
17993;SDS011;9122;48.406;9.984;2023-05-14T15:11:32;3.90;;;3.53;;
17993;SDS011;9122;48.406;9.984;2023-05-14T15:14:17;4.50;;;4.17;;
17993;SDS011;9122;48.406;9.984;2023-05-14T15:17:01;3.63;;;3.33;;
17993;SDS011;9122;48.406;9.984;2023-05-14T15:19:46;3.83;;;3.53;;
17993;SDS011;9122;48.406;9.984;2023-05-14T15:22:30;3.90;;;3.60;;
17993;SDS011;9122;48.406;9.984;2023-05-14T15:25:15;4.63;;;4.23;;
17993;SDS011;9122;48.406;9.984;2023-05-14T15:27:59;4.10;;;3.80;;
17993;SDS011;9122;48.406;9.984;2023-05-14T15:30:46;5.30;;;4.23;;
17993;SDS011;9122;48.406;9.984;2023-05-14T15:33:30;5.33;;;4.83;;
17993;SDS011;9122;48.406;9.984;2023-05-14T15:36:16;5.83;;;5.33;;
17993;SDS011;9122;48.406;9.984;2023-05-14T15:39:00;6.10;;;5.50;;
17993;SDS011;9122;48.406;9.984;2023-05-14T15:41:45;5.47;;;4.97;;
17993;SDS011;9122;48.406;9.984;2023-05-14T15:44:30;5.47;;;4.97;;
17993;SDS011;9122;48.406;9.984;2023-05-14T15:47:14;5.87;;;4.97;;
17993;SDS011;9122;48.406;9.984;2023-05-14T15:49:59;5.27;;;4.83;;
17993;SDS011;9122;48.406;9.984;2023-05-14T15:52:43;4.63;;;4.23;;
17993;SDS011;9122;48.406;9.984;2023-05-14T15:55:28;5.13;;;4.73;;
17993;SDS011;9122;48.406;9.984;2023-05-14T15:58:14;5.77;;;4.60;;
17993;SDS011;9122;48.406;9.984;2023-05-14T16:00:59;5.23;;;4.73;;
17993;SDS011;9122;48.406;9.984;2023-05-14T16:03:44;5.97;;;5.40;;
17993;SDS011;9122;48.406;9.984;2023-05-14T16:06:28;5.53;;;5.07;;
17993;SDS011;9122;48.406;9.984;2023-05-14T16:09:14;5.30;;;4.80;;
17993;SDS011;9122;48.406;9.984;2023-05-14T16:11:58;5.43;;;5.03;;
17993;SDS011;9122;48.406;9.984;2023-05-14T16:14:43;5.50;;;5.00;;
17993;SDS011;9122;48.406;9.984;2023-05-14T16:17:28;4.93;;;4.53;;
17993;SDS011;9122;48.406;9.984;2023-05-14T16:20:15;6.07;;;4.87;;
17993;SDS011;9122;48.406;9.984;2023-05-14T16:22:59;6.03;;;5.10;;
17993;SDS011;9122;48.406;9.984;2023-05-14T16:25:44;5.40;;;4.90;;
17993;SDS011;9122;48.406;9.984;2023-05-14T16:28:29;7.30;;;4.73;;
17993;SDS011;9122;48.406;9.984;2023-05-14T16:31:13;5.57;;;5.07;;
17993;SDS011;9122;48.406;9.984;2023-05-14T16:33:58;7.07;;;5.77;;
17993;SDS011;9122;48.406;9.984;2023-05-14T16:36:43;6.47;;;5.83;;
17993;SDS011;9122;48.406;9.984;2023-05-14T16:39:28;5.13;;;4.70;;
17993;SDS011;9122;48.406;9.984;2023-05-14T16:42:12;5.83;;;5.33;;
17993;SDS011;9122;48.406;9.984;2023-05-14T16:44:57;5.37;;;4.87;;
17993;SDS011;9122;48.406;9.984;2023-05-14T16:47:41;6.43;;;5.40;;
17993;SDS011;9122;48.406;9.984;2023-05-14T16:50:26;5.60;;;5.17;;